createdAt,value
2023-01-27T00:02:12.404Z,15.33
2023-01-27T00:04:43.105Z,14.77
2023-01-27T00:07:14.640Z,13.33
2023-01-27T00:09:45.770Z,14.53
2023-01-27T00:12:39.246Z,12.70
2023-01-27T00:15:10.759Z,15.13
2023-01-27T00:17:40.655Z,14.10
2023-01-27T00:20:15.785Z,16.00
2023-01-27T00:23:03.308Z,12.97
2023-01-27T00:25:35.585Z,14.53
2023-01-27T00:28:08.431Z,12.70
2023-01-27T00:30:38.914Z,11.20
2023-01-27T00:33:29.536Z,12.73
2023-01-27T00:36:05.772Z,9.87
2023-01-27T00:38:42.014Z,7.50
2023-01-27T00:41:24.895Z,8.87
2023-01-27T00:43:54.930Z,9.70
2023-01-27T00:46:34.082Z,10.10
2023-01-27T00:49:11.188Z,7.67
2023-01-27T00:51:43.320Z,9.27
2023-01-27T00:54:15.854Z,11.10
2023-01-27T00:56:48.527Z,10.10
2023-01-27T00:59:20.831Z,9.73
2023-01-27T01:01:51.022Z,8.37
2023-01-27T01:04:21.455Z,8.80
2023-01-27T01:07:00.628Z,10.93
2023-01-27T01:09:39.529Z,10.37
2023-01-27T01:12:10.823Z,10.60
2023-01-27T01:14:41.916Z,6.37
2023-01-27T01:17:25.753Z,11.10
2023-01-27T01:19:57.975Z,8.50
2023-01-27T01:22:34.213Z,9.40
2023-01-27T01:25:08.184Z,6.33
2023-01-27T01:27:37.923Z,7.20
2023-01-27T01:30:14.170Z,7.77
2023-01-27T01:32:46.279Z,9.13
2023-01-27T01:35:25.048Z,9.73
2023-01-27T01:37:58.340Z,9.30
2023-01-27T01:40:30.714Z,7.17
2023-01-27T01:43:00.834Z,7.00
2023-01-27T01:45:54.804Z,7.33
2023-01-27T01:48:36.175Z,6.73
2023-01-27T01:51:18.818Z,7.40
2023-01-27T01:57:01.784Z,8.13
2023-01-27T01:59:36.543Z,6.87
2023-01-27T02:02:07.168Z,7.50
2023-01-27T02:04:42.805Z,10.10
2023-01-27T02:07:18.115Z,9.27
2023-01-27T02:09:59.030Z,10.80
2023-01-27T02:12:30.846Z,10.83
2023-01-27T02:15:14.868Z,12.50
2023-01-27T02:17:49.082Z,14.40
2023-01-27T02:20:23.748Z,12.70
2023-01-27T02:23:01.755Z,11.80
2023-01-27T02:25:39.725Z,12.60
2023-01-27T02:28:12.048Z,14.03
2023-01-27T02:30:42.130Z,15.17
2023-01-27T02:33:25.254Z,14.07
2023-01-27T02:36:00.286Z,12.60
2023-01-27T02:38:39.153Z,16.17
2023-01-27T02:41:17.310Z,15.47
2023-01-27T02:43:52.390Z,15.27
2023-01-27T02:46:23.351Z,15.53
2023-01-27T02:48:54.079Z,19.50
2023-01-27T02:51:33.001Z,16.60
2023-01-27T02:54:03.803Z,19.90
2023-01-27T02:56:34.674Z,20.30
2023-01-27T02:59:04.465Z,17.40
2023-01-27T03:01:41.888Z,18.20
2023-01-27T03:04:12.643Z,16.60
2023-01-27T03:06:50.360Z,20.00
2023-01-27T03:09:21.384Z,18.47
2023-01-27T03:12:09.488Z,16.90
2023-01-27T03:14:58.928Z,19.87
2023-01-27T03:17:45.800Z,17.67
2023-01-27T03:20:24.656Z,17.13
2023-01-27T03:22:58.749Z,23.87
2023-01-27T03:25:28.933Z,18.90
2023-01-27T03:28:06.762Z,18.90
2023-01-27T03:30:46.563Z,18.17
2023-01-27T03:33:23.591Z,18.37
2023-01-27T03:36:30.509Z,16.57
2023-01-27T03:39:18.004Z,17.77
2023-01-27T03:42:05.474Z,19.70
2023-01-27T03:44:59.168Z,15.00
2023-01-27T03:47:33.716Z,17.03
2023-01-27T03:50:19.565Z,14.97
2023-01-27T03:53:03.468Z,17.73
2023-01-27T03:55:34.849Z,15.37
2023-01-27T03:58:17.051Z,17.60
2023-01-27T04:00:47.697Z,20.47
2023-01-27T04:03:34.549Z,20.40
2023-01-27T04:06:26.293Z,16.27
2023-01-27T04:08:57.581Z,15.93
2023-01-27T04:11:44.430Z,17.60
2023-01-27T04:14:20.964Z,16.70
2023-01-27T04:16:58.922Z,16.93
2023-01-27T04:19:29.886Z,17.43
2023-01-27T04:22:09.470Z,15.53
2023-01-27T04:24:38.922Z,16.23
2023-01-27T04:27:26.302Z,17.00
2023-01-27T04:29:59.514Z,17.80
2023-01-27T04:32:36.962Z,19.93
2023-01-27T04:35:10.728Z,20.80
2023-01-27T04:37:43.570Z,17.20
2023-01-27T04:40:13.568Z,21.27
2023-01-27T04:42:46.111Z,18.93
2023-01-27T04:45:27.063Z,20.93
2023-01-27T04:47:58.165Z,19.17
2023-01-27T04:50:29.717Z,19.70
2023-01-27T04:52:59.233Z,17.00
2023-01-27T04:55:32.886Z,20.87
2023-01-27T04:58:06.353Z,18.00
2023-01-27T05:00:35.931Z,17.70
2023-01-27T05:03:10.329Z,19.97
2023-01-27T05:05:41.571Z,16.77
2023-01-27T05:08:13.857Z,21.30
2023-01-27T05:10:52.933Z,16.23
2023-01-27T05:13:21.540Z,15.17
2023-01-27T05:15:50.890Z,16.77
2023-01-27T05:18:25.244Z,13.00
2023-01-27T05:20:56.519Z,15.93
2023-01-27T05:23:41.283Z,18.80
2023-01-27T05:26:13.735Z,14.53
2023-01-27T05:28:44.614Z,19.57
2023-01-27T05:31:16.449Z,16.40
2023-01-27T05:33:51.321Z,16.70
2023-01-27T05:36:30.453Z,14.80
2023-01-27T05:39:01.373Z,17.00
2023-01-27T05:41:39.565Z,17.37
2023-01-27T05:44:12.774Z,17.20
2023-01-27T05:46:42.969Z,15.87
2023-01-27T05:49:13.762Z,14.53
2023-01-27T05:51:44.698Z,14.80
2023-01-27T05:54:21.141Z,18.50
2023-01-27T05:56:51.229Z,15.00
2023-01-27T05:59:20.797Z,15.77
2023-01-27T06:01:48.913Z,15.00
2023-01-27T06:04:23.519Z,14.63
2023-01-27T06:06:52.767Z,17.80
2023-01-27T06:09:27.347Z,17.10
2023-01-27T06:11:55.914Z,16.77
2023-01-27T06:14:27.113Z,16.20
2023-01-27T06:16:56.359Z,14.63
2023-01-27T06:19:28.989Z,22.63
2023-01-27T06:22:06.147Z,16.67
2023-01-27T06:24:42.681Z,14.60
2023-01-27T06:27:14.972Z,19.77
2023-01-27T06:29:46.864Z,20.27
2023-01-27T06:32:16.285Z,18.90
2023-01-27T06:34:49.349Z,17.10
2023-01-27T06:37:20.585Z,15.20
2023-01-27T06:39:49.379Z,15.83
2023-01-27T06:42:22.087Z,16.80
2023-01-27T06:44:50.403Z,16.20
2023-01-27T06:47:22.045Z,21.80
2023-01-27T06:49:51.742Z,16.20
2023-01-27T06:52:34.354Z,18.50
2023-01-27T06:55:09.410Z,18.87
2023-01-27T06:57:45.891Z,19.87
2023-01-27T07:00:20.477Z,16.47
2023-01-27T07:02:51.265Z,15.80
2023-01-27T07:05:28.905Z,14.10
2023-01-27T07:08:06.741Z,16.27
2023-01-27T07:10:38.929Z,18.63
2023-01-27T07:13:08.657Z,21.13
2023-01-27T07:15:40.029Z,22.23
2023-01-27T07:18:10.996Z,16.27
2023-01-27T07:20:43.516Z,16.33
2023-01-27T07:23:22.015Z,17.50
2023-01-27T07:25:51.399Z,16.47
2023-01-27T07:28:21.208Z,21.00
2023-01-27T07:30:52.092Z,23.43
2023-01-27T07:33:29.091Z,15.93
2023-01-27T07:36:02.750Z,25.13
2023-01-27T07:38:34.550Z,18.77
2023-01-27T07:41:06.413Z,25.73
2023-01-27T07:43:36.316Z,24.73
2023-01-27T07:46:10.802Z,19.70
2023-01-27T07:48:40.059Z,23.33
2023-01-27T07:51:21.960Z,20.53
2023-01-27T07:53:53.077Z,18.90
2023-01-27T07:56:24.088Z,27.57
2023-01-27T07:58:58.616Z,20.47
2023-01-27T08:01:27.555Z,20.90
2023-01-27T08:04:04.781Z,24.17
2023-01-27T08:06:39.392Z,23.90
2023-01-27T08:09:11.894Z,19.90
2023-01-27T08:11:41.816Z,19.67
2023-01-27T08:14:11.152Z,26.30
2023-01-27T08:16:39.800Z,20.03
2023-01-27T08:19:08.975Z,25.53
2023-01-27T08:21:50.768Z,25.73
2023-01-27T08:24:21.424Z,25.63
2023-01-27T08:26:58.149Z,20.30
2023-01-27T08:29:26.567Z,19.03
2023-01-27T08:31:57.683Z,21.70
2023-01-27T08:34:29.406Z,26.73
2023-01-27T08:36:59.884Z,19.63
2023-01-27T08:39:29.442Z,30.27
2023-01-27T08:42:01.210Z,26.40
2023-01-27T08:44:37.831Z,27.30
2023-01-27T08:47:08.922Z,21.23
2023-01-27T08:49:43.323Z,21.40
2023-01-27T08:52:32.025Z,23.60
2023-01-27T08:55:06.761Z,23.20
2023-01-27T08:57:39.362Z,23.50
2023-01-27T09:00:15.732Z,27.13
2023-01-27T09:02:49.215Z,29.27
2023-01-27T09:05:22.498Z,21.57
2023-01-27T09:07:58.116Z,24.83
2023-01-27T09:10:41.581Z,23.40
2023-01-27T09:13:15.196Z,25.30
2023-01-27T09:15:46.532Z,26.17
2023-01-27T09:18:15.988Z,26.73
2023-01-27T09:20:52.043Z,23.03
2023-01-27T09:23:24.166Z,26.53
2023-01-27T09:25:52.692Z,28.10
2023-01-27T09:28:22.989Z,28.90
2023-01-27T09:33:57.985Z,30.30
2023-01-27T09:36:29.463Z,29.80
2023-01-27T09:39:10.819Z,29.70
2023-01-27T09:42:26.993Z,33.83
2023-01-27T09:45:22.786Z,36.70
2023-01-27T09:48:13.627Z,32.97
2023-01-27T09:50:48.045Z,39.73
2023-01-27T09:57:10.920Z,34.37
2023-01-27T10:00:18.758Z,36.33
2023-01-27T10:03:11.443Z,36.10
2023-01-27T10:06:27.768Z,33.03
2023-01-27T10:09:43.845Z,30.43
2023-01-27T10:12:34.661Z,32.43
2023-01-27T10:15:17.322Z,35.63
2023-01-27T10:17:57.556Z,32.93
2023-01-27T10:20:41.127Z,37.13
2023-01-27T10:23:19.226Z,35.73
2023-01-27T10:25:56.770Z,37.43
2023-01-27T10:28:35.283Z,33.33
2023-01-27T10:31:10.652Z,33.73
2023-01-27T10:33:52.228Z,30.80
2023-01-27T10:36:34.167Z,30.93
2023-01-27T10:39:14.028Z,34.43
2023-01-27T10:42:03.917Z,35.40
2023-01-27T10:44:55.376Z,33.93
2023-01-27T10:47:39.217Z,38.43
2023-01-27T10:50:17.524Z,33.63
2023-01-27T10:56:04.641Z,36.10
2023-01-27T10:58:51.616Z,34.17
2023-01-27T11:01:30.777Z,34.83
2023-01-27T11:04:04.011Z,31.70
2023-01-27T11:06:46.263Z,35.70
2023-01-27T11:09:29.213Z,34.63
2023-01-27T11:12:12.318Z,35.10
2023-01-27T11:18:06.180Z,34.23
2023-01-27T11:20:54.422Z,33.67
2023-01-27T11:23:29.611Z,37.20
2023-01-27T11:26:10.448Z,38.00
2023-01-27T11:28:46.089Z,37.80
2023-01-27T11:31:37.375Z,36.93
2023-01-27T11:34:19.795Z,38.83
2023-01-27T11:36:51.843Z,35.03
2023-01-27T11:43:15.146Z,34.17
2023-01-27T11:45:53.478Z,37.10
2023-01-27T11:48:24.324Z,36.50
2023-01-27T11:51:10.403Z,36.50
2023-01-27T11:54:23.413Z,34.13
2023-01-27T11:56:56.322Z,40.80
2023-01-27T11:59:32.616Z,38.13
2023-01-27T12:02:17.229Z,38.27
2023-01-27T12:04:52.991Z,33.20
2023-01-27T12:07:39.506Z,39.83
2023-01-27T12:10:33.344Z,41.63
2023-01-27T12:13:17.792Z,33.07
2023-01-27T12:15:52.940Z,39.97
2023-01-27T12:18:25.521Z,38.93
2023-01-27T12:21:02.943Z,39.97
2023-01-27T12:23:41.277Z,40.77
2023-01-27T12:26:17.492Z,37.33
2023-01-27T12:28:53.823Z,41.40
2023-01-27T12:31:28.264Z,39.87
2023-01-27T12:34:01.540Z,36.63
2023-01-27T12:36:43.128Z,36.20
2023-01-27T12:39:45.357Z,41.83
2023-01-27T12:42:45.980Z,40.67
2023-01-27T12:45:29.192Z,37.13
2023-01-27T12:48:08.569Z,37.43
2023-01-27T12:51:10.130Z,39.80
2023-01-27T12:53:53.010Z,40.10
2023-01-27T12:56:25.507Z,40.37
2023-01-27T12:59:03.898Z,38.70
2023-01-27T13:01:38.347Z,41.03
2023-01-27T13:04:13.989Z,42.23
2023-01-27T13:06:47.783Z,37.40
2023-01-27T13:09:30.303Z,35.47
2023-01-27T13:12:04.440Z,39.77
2023-01-27T13:14:44.241Z,40.23
2023-01-27T13:17:34.975Z,40.27
2023-01-27T13:20:10.284Z,39.17
2023-01-27T13:22:51.648Z,41.00
2023-01-27T13:25:30.099Z,36.20
2023-01-27T13:28:03.197Z,36.23
2023-01-27T13:30:50.787Z,37.20
2023-01-27T13:33:40.548Z,38.87
2023-01-27T13:36:21.549Z,39.90
2023-01-27T13:38:55.705Z,36.90
2023-01-27T13:41:34.280Z,34.17
2023-01-27T13:44:12.601Z,38.57
2023-01-27T13:46:45.064Z,34.30
2023-01-27T13:49:27.150Z,40.73
2023-01-27T13:52:00.377Z,36.07
2023-01-27T13:54:32.438Z,37.83
2023-01-27T13:57:34.459Z,39.33
2023-01-27T14:00:12.644Z,46.70
2023-01-27T14:03:20.965Z,44.83
2023-01-27T14:06:08.776Z,42.03
2023-01-27T14:08:52.597Z,43.70
2023-01-27T14:11:30.409Z,46.90
2023-01-27T14:14:11.832Z,49.10
2023-01-27T14:16:48.398Z,44.10
2023-01-27T14:19:39.452Z,44.30
2023-01-27T14:22:21.278Z,48.73
2023-01-27T14:24:56.879Z,41.60
2023-01-27T14:37:38.638Z,39.90
2023-01-27T14:40:25.943Z,43.53
2023-01-27T14:43:13.287Z,42.80
2023-01-27T14:45:47.713Z,45.73
2023-01-27T14:48:34.162Z,47.07
2023-01-27T14:51:11.300Z,45.80
2023-01-27T15:00:01.130Z,49.60
2023-01-27T15:06:02.430Z,53.60
2023-01-27T15:08:43.933Z,52.50
2023-01-27T15:11:33.649Z,51.30
2023-01-27T15:14:23.638Z,56.37
2023-01-27T15:17:18.762Z,47.83
2023-01-27T15:20:05.962Z,52.00
2023-01-27T15:22:53.102Z,45.37
2023-01-27T15:38:05.663Z,51.13
2023-01-27T15:40:59.492Z,52.07
2023-01-27T15:46:32.407Z,46.77
2023-01-27T15:49:17.518Z,42.43
2023-01-27T15:51:52.639Z,49.03
2023-01-27T15:54:27.874Z,48.67
2023-01-27T15:57:12.939Z,45.23
2023-01-27T16:02:48.061Z,53.27
2023-01-27T16:05:25.700Z,51.40
2023-01-27T16:08:01.959Z,45.33
2023-01-27T16:10:46.942Z,54.47
2023-01-27T16:16:44.012Z,57.90
2023-01-27T16:28:54.873Z,43.10
2023-01-27T16:31:28.244Z,44.10
2023-01-27T16:40:19.788Z,49.77
2023-01-27T16:42:57.536Z,45.97
2023-01-27T17:24:34.539Z,41.67
2023-01-27T17:27:18.229Z,40.53
2023-01-27T17:45:34.498Z,43.73
2023-01-27T17:51:28.486Z,42.63
2023-01-27T18:17:50.352Z,40.80
2023-01-27T18:38:52.342Z,49.20
2023-01-27T18:47:50.159Z,43.50
2023-01-27T18:50:31.925Z,40.73
2023-01-27T19:11:45.322Z,43.83
2023-01-27T19:23:46.593Z,41.17
2023-01-27T20:09:18.214Z,41.27
2023-01-27T21:22:19.007Z,42.10
2023-01-27T21:24:58.927Z,45.70
2023-01-27T21:27:44.685Z,39.00
2023-01-27T21:30:20.069Z,41.13
2023-01-27T21:33:00.515Z,44.83
2023-01-27T21:35:38.182Z,42.93
2023-01-27T21:38:21.780Z,39.43
2023-01-27T21:41:11.738Z,41.57
2023-01-27T21:54:12.573Z,40.10
2023-01-27T21:56:48.415Z,41.90
2023-01-27T21:59:31.925Z,43.80
2023-01-27T22:02:02.594Z,40.90
2023-01-27T22:04:34.194Z,46.67
2023-01-27T22:07:05.771Z,43.07
2023-01-27T22:09:43.002Z,42.27
2023-01-27T22:12:22.893Z,40.00
2023-01-27T22:15:05.466Z,42.00
2023-01-27T22:17:42.982Z,36.57
2023-01-27T22:20:20.237Z,38.57
2023-01-27T22:22:57.024Z,45.00
2023-01-27T22:25:35.437Z,42.30
2023-01-27T22:28:10.826Z,36.30
2023-01-27T22:30:42.904Z,34.63
2023-01-27T22:33:16.887Z,41.40
2023-01-27T22:35:45.586Z,32.50
2023-01-27T22:38:22.585Z,41.77
2023-01-27T22:40:57.733Z,34.10
2023-01-27T22:43:29.949Z,40.80
2023-01-27T22:46:19.583Z,36.07
2023-01-27T22:49:00.716Z,36.57
2023-01-27T22:51:37.084Z,37.73
2023-01-27T22:54:06.132Z,32.67
2023-01-27T22:56:53.471Z,39.57
2023-01-27T22:59:32.353Z,34.40
2023-01-27T23:02:09.021Z,30.97
2023-01-27T23:04:41.683Z,36.23
2023-01-27T23:07:16.818Z,43.07
2023-01-27T23:09:48.838Z,36.53
2023-01-27T23:12:25.127Z,41.07
2023-01-27T23:15:05.298Z,35.37
2023-01-27T23:17:36.752Z,39.23
2023-01-27T23:20:09.293Z,36.10
2023-01-27T23:22:39.109Z,39.17
2023-01-27T23:25:15.967Z,41.77
2023-01-27T23:27:49.049Z,34.43
2023-01-27T23:30:33.946Z,38.30
2023-01-27T23:33:04.598Z,38.03
2023-01-27T23:35:35.957Z,38.27
2023-01-27T23:38:22.677Z,32.93
2023-01-27T23:40:58.252Z,35.47
2023-01-27T23:43:31.871Z,33.73
2023-01-27T23:46:09.706Z,35.10
2023-01-27T23:48:39.125Z,30.50
2023-01-27T23:51:19.306Z,31.20
2023-01-27T23:53:51.490Z,30.70
2023-01-27T23:56:22.622Z,29.87
2023-01-27T23:58:54.030Z,36.53
